sensor_id;sensor_type;location;lat;lon;timestamp;P1;durP1;ratioP1;P2;durP2;ratioP2
42972;SDS011;28610;51.214;6.962;2023-03-14T00:01:09;9.70;;;3.57;;
42972;SDS011;28610;51.214;6.962;2023-03-14T00:03:55;6.90;;;2.93;;
42972;SDS011;28610;51.214;6.962;2023-03-14T00:06:41;10.27;;;3.53;;
42972;SDS011;28610;51.214;6.962;2023-03-14T00:09:26;10.33;;;3.30;;
42972;SDS011;28610;51.214;6.962;2023-03-14T00:12:14;12.53;;;3.67;;
42972;SDS011;28610;51.214;6.962;2023-03-14T00:15:00;10.30;;;2.90;;
42972;SDS011;28610;51.214;6.962;2023-03-14T00:17:47;11.00;;;3.43;;
42972;SDS011;28610;51.214;6.962;2023-03-14T00:20:32;9.90;;;3.43;;
42972;SDS011;28610;51.214;6.962;2023-03-14T00:23:18;10.43;;;3.20;;
42972;SDS011;28610;51.214;6.962;2023-03-14T00:26:04;11.57;;;3.60;;
42972;SDS011;28610;51.214;6.962;2023-03-14T00:28:52;11.13;;;3.17;;
42972;SDS011;28610;51.214;6.962;2023-03-14T00:31:37;13.20;;;3.47;;
42972;SDS011;28610;51.214;6.962;2023-03-14T00:34:23;8.70;;;3.30;;
42972;SDS011;28610;51.214;6.962;2023-03-14T00:37:13;7.20;;;3.20;;
42972;SDS011;28610;51.214;6.962;2023-03-14T00:39:59;10.63;;;3.63;;
42972;SDS011;28610;51.214;6.962;2023-03-14T00:42:44;9.47;;;3.20;;
42972;SDS011;28610;51.214;6.962;2023-03-14T00:45:31;9.37;;;3.47;;
42972;SDS011;28610;51.214;6.962;2023-03-14T00:48:16;11.83;;;3.20;;
42972;SDS011;28610;51.214;6.962;2023-03-14T00:51:02;16.00;;;4.00;;
42972;SDS011;28610;51.214;6.962;2023-03-14T00:53:48;11.43;;;3.80;;
42972;SDS011;28610;51.214;6.962;2023-03-14T00:56:34;15.30;;;4.13;;
42972;SDS011;28610;51.214;6.962;2023-03-14T00:59:19;12.03;;;3.47;;
42972;SDS011;28610;51.214;6.962;2023-03-14T01:02:06;12.13;;;3.20;;
42972;SDS011;28610;51.214;6.962;2023-03-14T01:04:52;7.30;;;3.10;;
42972;SDS011;28610;51.214;6.962;2023-03-14T01:07:37;8.30;;;2.80;;
42972;SDS011;28610;51.214;6.962;2023-03-14T01:10:23;9.17;;;2.70;;
42972;SDS011;28610;51.214;6.962;2023-03-14T01:13:09;9.07;;;2.97;;
42972;SDS011;28610;51.214;6.962;2023-03-14T01:15:54;9.57;;;2.80;;
42972;SDS011;28610;51.214;6.962;2023-03-14T01:18:42;10.33;;;2.90;;
42972;SDS011;28610;51.214;6.962;2023-03-14T01:21:29;7.47;;;2.90;;
42972;SDS011;28610;51.214;6.962;2023-03-14T01:24:15;7.77;;;2.80;;
42972;SDS011;28610;51.214;6.962;2023-03-14T01:27:00;9.10;;;2.97;;
42972;SDS011;28610;51.214;6.962;2023-03-14T01:29:46;11.00;;;2.97;;
42972;SDS011;28610;51.214;6.962;2023-03-14T01:32:32;10.10;;;2.87;;
42972;SDS011;28610;51.214;6.962;2023-03-14T01:35:19;11.07;;;3.10;;
42972;SDS011;28610;51.214;6.962;2023-03-14T01:38:04;11.47;;;3.17;;
42972;SDS011;28610;51.214;6.962;2023-03-14T01:40:50;6.07;;;2.77;;
42972;SDS011;28610;51.214;6.962;2023-03-14T01:43:36;8.13;;;2.77;;
42972;SDS011;28610;51.214;6.962;2023-03-14T01:46:26;11.37;;;3.47;;
42972;SDS011;28610;51.214;6.962;2023-03-14T01:49:14;8.50;;;2.67;;
42972;SDS011;28610;51.214;6.962;2023-03-14T01:52:03;7.60;;;2.97;;
42972;SDS011;28610;51.214;6.962;2023-03-14T01:54:51;7.40;;;3.10;;
42972;SDS011;28610;51.214;6.962;2023-03-14T01:57:38;8.33;;;2.83;;
42972;SDS011;28610;51.214;6.962;2023-03-14T02:00:24;9.27;;;3.07;;
42972;SDS011;28610;51.214;6.962;2023-03-14T02:03:11;11.47;;;3.10;;
42972;SDS011;28610;51.214;6.962;2023-03-14T02:05:59;10.90;;;2.90;;
42972;SDS011;28610;51.214;6.962;2023-03-14T02:08:50;10.13;;;3.13;;
42972;SDS011;28610;51.214;6.962;2023-03-14T02:11:36;11.03;;;3.10;;
42972;SDS011;28610;51.214;6.962;2023-03-14T02:14:25;13.20;;;3.07;;
42972;SDS011;28610;51.214;6.962;2023-03-14T02:17:12;7.80;;;2.97;;
42972;SDS011;28610;51.214;6.962;2023-03-14T02:20:04;10.73;;;3.10;;
42972;SDS011;28610;51.214;6.962;2023-03-14T02:22:52;6.47;;;2.90;;
42972;SDS011;28610;51.214;6.962;2023-03-14T02:25:41;11.67;;;3.30;;
42972;SDS011;28610;51.214;6.962;2023-03-14T02:28:29;10.13;;;3.03;;
42972;SDS011;28610;51.214;6.962;2023-03-14T02:31:15;8.73;;;3.33;;
42972;SDS011;28610;51.214;6.962;2023-03-14T02:34:01;10.37;;;3.30;;
42972;SDS011;28610;51.214;6.962;2023-03-14T02:36:47;8.73;;;3.03;;
42972;SDS011;28610;51.214;6.962;2023-03-14T02:39:35;10.37;;;2.90;;
42972;SDS011;28610;51.214;6.962;2023-03-14T02:42:21;9.13;;;3.53;;
42972;SDS011;28610;51.214;6.962;2023-03-14T02:45:34;11.93;;;3.47;;
42972;SDS011;28610;51.214;6.962;2023-03-14T02:48:20;14.90;;;3.50;;
42972;SDS011;28610;51.214;6.962;2023-03-14T02:51:06;10.70;;;2.97;;
42972;SDS011;28610;51.214;6.962;2023-03-14T02:53:52;11.87;;;3.43;;
42972;SDS011;28610;51.214;6.962;2023-03-14T02:56:38;6.67;;;2.80;;
42972;SDS011;28610;51.214;6.962;2023-03-14T02:59:24;8.67;;;3.03;;
42972;SDS011;28610;51.214;6.962;2023-03-14T03:02:10;10.77;;;3.83;;
42972;SDS011;28610;51.214;6.962;2023-03-14T03:04:56;9.50;;;3.40;;
42972;SDS011;28610;51.214;6.962;2023-03-14T03:07:41;9.33;;;3.20;;
42972;SDS011;28610;51.214;6.962;2023-03-14T03:10:27;8.87;;;3.27;;
42972;SDS011;28610;51.214;6.962;2023-03-14T03:13:13;6.47;;;3.50;;
42972;SDS011;28610;51.214;6.962;2023-03-14T03:15:59;9.10;;;2.90;;
42972;SDS011;28610;51.214;6.962;2023-03-14T03:18:46;13.00;;;3.70;;
42972;SDS011;28610;51.214;6.962;2023-03-14T03:21:31;9.40;;;3.30;;
42972;SDS011;28610;51.214;6.962;2023-03-14T03:24:18;6.03;;;3.10;;
42972;SDS011;28610;51.214;6.962;2023-03-14T03:27:03;10.17;;;3.23;;
42972;SDS011;28610;51.214;6.962;2023-03-14T03:29:49;10.67;;;3.10;;
42972;SDS011;28610;51.214;6.962;2023-03-14T03:32:35;8.10;;;3.00;;
42972;SDS011;28610;51.214;6.962;2023-03-14T03:35:22;8.80;;;3.60;;
42972;SDS011;28610;51.214;6.962;2023-03-14T03:38:08;13.47;;;3.37;;
42972;SDS011;28610;51.214;6.962;2023-03-14T03:40:55;9.33;;;3.03;;
42972;SDS011;28610;51.214;6.962;2023-03-14T03:43:40;14.33;;;3.33;;
42972;SDS011;28610;51.214;6.962;2023-03-14T03:46:26;10.50;;;3.13;;
42972;SDS011;28610;51.214;6.962;2023-03-14T03:49:11;8.17;;;2.77;;
42972;SDS011;28610;51.214;6.962;2023-03-14T03:51:58;10.67;;;3.37;;
42972;SDS011;28610;51.214;6.962;2023-03-14T03:54:44;10.63;;;3.10;;
42972;SDS011;28610;51.214;6.962;2023-03-14T03:57:30;13.77;;;3.00;;
42972;SDS011;28610;51.214;6.962;2023-03-14T04:00:16;5.73;;;3.20;;
42972;SDS011;28610;51.214;6.962;2023-03-14T04:03:01;11.70;;;3.23;;
42972;SDS011;28610;51.214;6.962;2023-03-14T04:05:57;15.37;;;3.33;;
42972;SDS011;28610;51.214;6.962;2023-03-14T04:08:44;11.53;;;3.70;;
42972;SDS011;28610;51.214;6.962;2023-03-14T04:11:29;14.73;;;3.97;;
42972;SDS011;28610;51.214;6.962;2023-03-14T04:14:15;10.43;;;3.60;;
42972;SDS011;28610;51.214;6.962;2023-03-14T04:17:01;10.07;;;3.87;;
42972;SDS011;28610;51.214;6.962;2023-03-14T04:19:47;17.53;;;3.77;;
42972;SDS011;28610;51.214;6.962;2023-03-14T04:22:34;12.47;;;3.83;;
42972;SDS011;28610;51.214;6.962;2023-03-14T04:25:21;10.83;;;3.50;;
42972;SDS011;28610;51.214;6.962;2023-03-14T04:28:07;11.73;;;4.30;;
42972;SDS011;28610;51.214;6.962;2023-03-14T04:30:52;9.00;;;3.87;;
42972;SDS011;28610;51.214;6.962;2023-03-14T04:33:38;10.87;;;4.17;;
42972;SDS011;28610;51.214;6.962;2023-03-14T04:36:24;12.20;;;4.23;;
42972;SDS011;28610;51.214;6.962;2023-03-14T04:39:10;14.53;;;5.00;;
42972;SDS011;28610;51.214;6.962;2023-03-14T04:41:56;12.07;;;4.97;;
42972;SDS011;28610;51.214;6.962;2023-03-14T04:44:42;13.20;;;4.67;;
42972;SDS011;28610;51.214;6.962;2023-03-14T04:47:28;14.00;;;4.57;;
42972;SDS011;28610;51.214;6.962;2023-03-14T04:50:14;15.47;;;4.27;;
42972;SDS011;28610;51.214;6.962;2023-03-14T04:53:00;13.87;;;4.70;;
42972;SDS011;28610;51.214;6.962;2023-03-14T04:55:49;17.77;;;4.33;;
42972;SDS011;28610;51.214;6.962;2023-03-14T04:58:37;15.43;;;3.97;;
42972;SDS011;28610;51.214;6.962;2023-03-14T05:01:22;14.83;;;4.20;;
42972;SDS011;28610;51.214;6.962;2023-03-14T05:04:08;11.30;;;3.97;;
42972;SDS011;28610;51.214;6.962;2023-03-14T05:06:53;12.30;;;4.20;;
42972;SDS011;28610;51.214;6.962;2023-03-14T05:09:39;11.30;;;4.20;;
42972;SDS011;28610;51.214;6.962;2023-03-14T05:12:24;16.53;;;4.33;;
42972;SDS011;28610;51.214;6.962;2023-03-14T05:15:11;13.27;;;3.60;;
42972;SDS011;28610;51.214;6.962;2023-03-14T05:17:57;15.00;;;3.53;;
42972;SDS011;28610;51.214;6.962;2023-03-14T05:20:42;12.57;;;3.50;;
42972;SDS011;28610;51.214;6.962;2023-03-14T05:23:27;10.93;;;3.27;;
42972;SDS011;28610;51.214;6.962;2023-03-14T05:26:13;7.70;;;3.03;;
42972;SDS011;28610;51.214;6.962;2023-03-14T05:29:00;11.50;;;3.37;;
42972;SDS011;28610;51.214;6.962;2023-03-14T05:31:47;6.03;;;3.20;;
42972;SDS011;28610;51.214;6.962;2023-03-14T05:34:33;6.40;;;2.60;;
42972;SDS011;28610;51.214;6.962;2023-03-14T05:37:19;4.13;;;2.83;;
42972;SDS011;28610;51.214;6.962;2023-03-14T05:40:05;6.20;;;2.70;;
42972;SDS011;28610;51.214;6.962;2023-03-14T05:42:52;10.87;;;3.00;;
42972;SDS011;28610;51.214;6.962;2023-03-14T05:45:37;8.13;;;2.70;;
42972;SDS011;28610;51.214;6.962;2023-03-14T05:48:24;7.73;;;2.73;;
42972;SDS011;28610;51.214;6.962;2023-03-14T05:51:10;5.47;;;2.77;;
42972;SDS011;28610;51.214;6.962;2023-03-14T05:53:56;9.43;;;2.70;;
42972;SDS011;28610;51.214;6.962;2023-03-14T05:56:41;5.53;;;2.77;;
42972;SDS011;28610;51.214;6.962;2023-03-14T05:59:27;5.17;;;2.63;;
42972;SDS011;28610;51.214;6.962;2023-03-14T06:02:13;9.07;;;3.20;;
42972;SDS011;28610;51.214;6.962;2023-03-14T06:05:00;5.07;;;3.10;;
42972;SDS011;28610;51.214;6.962;2023-03-14T06:07:45;8.73;;;2.87;;
42972;SDS011;28610;51.214;6.962;2023-03-14T06:10:30;7.10;;;2.93;;
42972;SDS011;28610;51.214;6.962;2023-03-14T06:13:16;4.43;;;3.00;;
42972;SDS011;28610;51.214;6.962;2023-03-14T06:16:02;7.97;;;3.50;;
42972;SDS011;28610;51.214;6.962;2023-03-14T06:18:47;5.33;;;2.60;;
42972;SDS011;28610;51.214;6.962;2023-03-14T06:21:34;2.60;;;2.40;;
42972;SDS011;28610;51.214;6.962;2023-03-14T06:24:20;2.83;;;2.50;;
42972;SDS011;28610;51.214;6.962;2023-03-14T06:27:06;3.73;;;2.73;;
42972;SDS011;28610;51.214;6.962;2023-03-14T06:29:51;4.23;;;3.13;;
42972;SDS011;28610;51.214;6.962;2023-03-14T06:32:37;4.90;;;2.87;;
42972;SDS011;28610;51.214;6.962;2023-03-14T06:35:23;3.30;;;2.70;;
42972;SDS011;28610;51.214;6.962;2023-03-14T06:38:10;4.43;;;2.40;;
42972;SDS011;28610;51.214;6.962;2023-03-14T06:40:56;4.67;;;2.50;;
42972;SDS011;28610;51.214;6.962;2023-03-14T06:43:41;2.47;;;2.33;;
42972;SDS011;28610;51.214;6.962;2023-03-14T06:46:27;2.60;;;2.40;;
42972;SDS011;28610;51.214;6.962;2023-03-14T06:49:13;3.23;;;2.40;;
42972;SDS011;28610;51.214;6.962;2023-03-14T06:51:58;5.13;;;2.40;;
42972;SDS011;28610;51.214;6.962;2023-03-14T06:54:45;3.10;;;2.40;;
42972;SDS011;28610;51.214;6.962;2023-03-14T06:57:31;2.97;;;2.50;;
42972;SDS011;28610;51.214;6.962;2023-03-14T07:00:17;5.70;;;2.47;;
42972;SDS011;28610;51.214;6.962;2023-03-14T07:03:02;2.63;;;2.20;;
42972;SDS011;28610;51.214;6.962;2023-03-14T07:05:47;3.67;;;2.10;;
42972;SDS011;28610;51.214;6.962;2023-03-14T07:08:33;3.73;;;2.50;;
42972;SDS011;28610;51.214;6.962;2023-03-14T07:11:20;3.80;;;2.70;;
42972;SDS011;28610;51.214;6.962;2023-03-14T07:14:06;3.00;;;2.40;;
42972;SDS011;28610;51.214;6.962;2023-03-14T07:16:51;2.83;;;2.37;;
42972;SDS011;28610;51.214;6.962;2023-03-14T07:19:37;2.30;;;2.20;;
42972;SDS011;28610;51.214;6.962;2023-03-14T07:22:22;2.50;;;2.30;;
42972;SDS011;28610;51.214;6.962;2023-03-14T07:25:08;3.20;;;2.20;;
42972;SDS011;28610;51.214;6.962;2023-03-14T07:27:57;2.57;;;2.37;;
42972;SDS011;28610;51.214;6.962;2023-03-14T07:30:42;3.93;;;2.20;;
42972;SDS011;28610;51.214;6.962;2023-03-14T07:33:28;2.97;;;2.27;;
42972;SDS011;28610;51.214;6.962;2023-03-14T07:36:14;2.30;;;2.20;;
42972;SDS011;28610;51.214;6.962;2023-03-14T07:39:00;2.60;;;2.40;;
42972;SDS011;28610;51.214;6.962;2023-03-14T07:41:45;2.70;;;2.50;;
42972;SDS011;28610;51.214;6.962;2023-03-14T07:44:32;2.70;;;2.50;;
42972;SDS011;28610;51.214;6.962;2023-03-14T07:47:18;2.57;;;2.40;;
42972;SDS011;28610;51.214;6.962;2023-03-14T07:50:04;2.60;;;2.40;;
42972;SDS011;28610;51.214;6.962;2023-03-14T07:52:50;2.30;;;2.20;;
42972;SDS011;28610;51.214;6.962;2023-03-14T07:55:35;3.07;;;2.20;;
42972;SDS011;28610;51.214;6.962;2023-03-14T07:58:21;2.47;;;2.27;;
42972;SDS011;28610;51.214;6.962;2023-03-14T08:01:08;3.57;;;2.73;;
42972;SDS011;28610;51.214;6.962;2023-03-14T08:03:54;3.07;;;2.70;;
42972;SDS011;28610;51.214;6.962;2023-03-14T08:06:40;4.13;;;2.60;;
42972;SDS011;28610;51.214;6.962;2023-03-14T08:09:25;2.50;;;2.30;;
42972;SDS011;28610;51.214;6.962;2023-03-14T08:12:11;2.77;;;2.30;;
42972;SDS011;28610;51.214;6.962;2023-03-14T08:14:57;2.37;;;2.17;;
42972;SDS011;28610;51.214;6.962;2023-03-14T08:17:44;2.80;;;2.60;;
42972;SDS011;28610;51.214;6.962;2023-03-14T08:20:35;3.10;;;2.70;;
42972;SDS011;28610;51.214;6.962;2023-03-14T08:23:21;4.77;;;3.53;;
42972;SDS011;28610;51.214;6.962;2023-03-14T08:26:07;10.33;;;5.90;;
42972;SDS011;28610;51.214;6.962;2023-03-14T08:28:53;8.40;;;4.73;;
42972;SDS011;28610;51.214;6.962;2023-03-14T08:31:38;6.87;;;4.30;;
42972;SDS011;28610;51.214;6.962;2023-03-14T08:34:25;4.37;;;2.60;;
42972;SDS011;28610;51.214;6.962;2023-03-14T08:37:12;2.57;;;2.20;;
42972;SDS011;28610;51.214;6.962;2023-03-14T08:39:57;5.87;;;3.23;;
42972;SDS011;28610;51.214;6.962;2023-03-14T08:42:43;5.43;;;3.97;;
42972;SDS011;28610;51.214;6.962;2023-03-14T08:45:28;4.33;;;2.93;;
42972;SDS011;28610;51.214;6.962;2023-03-14T08:48:14;4.43;;;3.10;;
42972;SDS011;28610;51.214;6.962;2023-03-14T08:51:05;5.30;;;3.97;;
42972;SDS011;28610;51.214;6.962;2023-03-14T08:53:51;3.10;;;2.83;;
42972;SDS011;28610;51.214;6.962;2023-03-14T08:56:36;4.30;;;3.40;;
42972;SDS011;28610;51.214;6.962;2023-03-14T08:59:22;4.13;;;2.90;;
42972;SDS011;28610;51.214;6.962;2023-03-14T09:02:08;3.00;;;2.80;;
42972;SDS011;28610;51.214;6.962;2023-03-14T09:04:54;3.43;;;2.57;;
42972;SDS011;28610;51.214;6.962;2023-03-14T09:07:41;5.87;;;2.90;;
42972;SDS011;28610;51.214;6.962;2023-03-14T09:10:27;5.00;;;3.30;;
42972;SDS011;28610;51.214;6.962;2023-03-14T09:13:12;3.60;;;3.30;;
42972;SDS011;28610;51.214;6.962;2023-03-14T09:15:58;4.33;;;2.90;;
42972;SDS011;28610;51.214;6.962;2023-03-14T09:18:43;3.90;;;3.00;;
42972;SDS011;28610;51.214;6.962;2023-03-14T09:21:29;4.40;;;3.13;;
42972;SDS011;28610;51.214;6.962;2023-03-14T09:24:16;5.63;;;3.60;;
42972;SDS011;28610;51.214;6.962;2023-03-14T09:27:01;5.03;;;3.53;;
42972;SDS011;28610;51.214;6.962;2023-03-14T09:29:47;3.27;;;2.97;;
42972;SDS011;28610;51.214;6.962;2023-03-14T09:32:32;3.53;;;2.80;;
42972;SDS011;28610;51.214;6.962;2023-03-14T09:35:18;2.70;;;2.50;;
42972;SDS011;28610;51.214;6.962;2023-03-14T09:38:05;2.70;;;2.50;;
42972;SDS011;28610;51.214;6.962;2023-03-14T09:40:52;2.70;;;2.30;;
42972;SDS011;28610;51.214;6.962;2023-03-14T09:43:38;2.33;;;2.13;;
42972;SDS011;28610;51.214;6.962;2023-03-14T09:46:24;3.80;;;2.20;;
42972;SDS011;28610;51.214;6.962;2023-03-14T09:49:10;3.87;;;2.30;;
42972;SDS011;28610;51.214;6.962;2023-03-14T09:51:58;2.50;;;2.30;;
42972;SDS011;28610;51.214;6.962;2023-03-14T09:54:45;3.63;;;2.50;;
42972;SDS011;28610;51.214;6.962;2023-03-14T09:57:33;2.57;;;2.43;;
42972;SDS011;28610;51.214;6.962;2023-03-14T10:00:20;2.83;;;2.50;;
42972;SDS011;28610;51.214;6.962;2023-03-14T10:03:24;3.47;;;2.57;;
42972;SDS011;28610;51.214;6.962;2023-03-14T10:06:11;3.50;;;3.20;;
42972;SDS011;28610;51.214;6.962;2023-03-14T10:08:57;5.57;;;2.90;;
42972;SDS011;28610;51.214;6.962;2023-03-14T10:11:42;3.40;;;3.10;;
42972;SDS011;28610;51.214;6.962;2023-03-14T10:14:31;5.23;;;3.13;;
42972;SDS011;28610;51.214;6.962;2023-03-14T10:17:18;3.50;;;3.13;;
42972;SDS011;28610;51.214;6.962;2023-03-14T10:20:04;5.07;;;3.13;;
42972;SDS011;28610;51.214;6.962;2023-03-14T10:22:50;3.70;;;3.03;;
42972;SDS011;28610;51.214;6.962;2023-03-14T10:25:36;6.90;;;3.83;;
42972;SDS011;28610;51.214;6.962;2023-03-14T10:28:23;4.73;;;3.10;;
42972;SDS011;28610;51.214;6.962;2023-03-14T10:43:50;3.67;;;3.30;;
42972;SDS011;28610;51.214;6.962;2023-03-14T10:46:36;4.93;;;3.60;;
42972;SDS011;28610;51.214;6.962;2023-03-14T10:49:23;6.73;;;3.40;;
42972;SDS011;28610;51.214;6.962;2023-03-14T10:52:13;4.30;;;3.10;;
42972;SDS011;28610;51.214;6.962;2023-03-14T10:55:00;5.40;;;3.43;;
42972;SDS011;28610;51.214;6.962;2023-03-14T10:57:46;4.23;;;3.50;;
42972;SDS011;28610;51.214;6.962;2023-03-14T11:00:33;4.60;;;3.50;;
42972;SDS011;28610;51.214;6.962;2023-03-14T11:03:19;5.47;;;4.10;;
42972;SDS011;28610;51.214;6.962;2023-03-14T11:06:06;11.90;;;4.13;;
42972;SDS011;28610;51.214;6.962;2023-03-14T11:08:56;7.80;;;4.00;;
42972;SDS011;28610;51.214;6.962;2023-03-14T11:11:45;5.40;;;3.90;;
42972;SDS011;28610;51.214;6.962;2023-03-14T11:14:32;7.67;;;4.33;;
42972;SDS011;28610;51.214;6.962;2023-03-14T11:17:22;13.33;;;7.77;;
42972;SDS011;28610;51.214;6.962;2023-03-14T11:20:16;9.00;;;5.07;;
42972;SDS011;28610;51.214;6.962;2023-03-14T11:23:04;6.50;;;4.40;;
42972;SDS011;28610;51.214;6.962;2023-03-14T11:25:54;7.40;;;4.40;;
42972;SDS011;28610;51.214;6.962;2023-03-14T11:28:44;6.57;;;4.30;;
42972;SDS011;28610;51.214;6.962;2023-03-14T11:31:33;8.83;;;4.40;;
42972;SDS011;28610;51.214;6.962;2023-03-14T11:34:23;8.63;;;4.73;;
42972;SDS011;28610;51.214;6.962;2023-03-14T11:37:14;8.77;;;3.77;;
42972;SDS011;28610;51.214;6.962;2023-03-14T11:40:01;5.43;;;3.83;;
42972;SDS011;28610;51.214;6.962;2023-03-14T11:42:50;6.93;;;3.70;;
42972;SDS011;28610;51.214;6.962;2023-03-14T11:45:38;5.20;;;3.73;;
42972;SDS011;28610;51.214;6.962;2023-03-14T11:48:28;8.57;;;3.83;;
42972;SDS011;28610;51.214;6.962;2023-03-14T11:51:20;7.47;;;4.20;;
42972;SDS011;28610;51.214;6.962;2023-03-14T11:54:10;10.63;;;4.40;;
42972;SDS011;28610;51.214;6.962;2023-03-14T11:56:57;10.90;;;4.70;;
42972;SDS011;28610;51.214;6.962;2023-03-14T11:59:47;9.43;;;5.40;;
42972;SDS011;28610;51.214;6.962;2023-03-14T12:02:38;9.57;;;5.80;;
42972;SDS011;28610;51.214;6.962;2023-03-14T12:05:29;6.77;;;4.70;;
42972;SDS011;28610;51.214;6.962;2023-03-14T12:08:27;9.87;;;5.30;;
42972;SDS011;28610;51.214;6.962;2023-03-14T12:11:18;8.90;;;5.23;;
42972;SDS011;28610;51.214;6.962;2023-03-14T12:14:14;8.97;;;5.70;;
42972;SDS011;28610;51.214;6.962;2023-03-14T12:17:04;8.90;;;5.10;;
42972;SDS011;28610;51.214;6.962;2023-03-14T12:19:59;11.20;;;5.23;;
42972;SDS011;28610;51.214;6.962;2023-03-14T12:22:48;10.07;;;5.10;;
42972;SDS011;28610;51.214;6.962;2023-03-14T12:25:37;6.93;;;4.90;;
42972;SDS011;28610;51.214;6.962;2023-03-14T12:28:29;10.17;;;5.67;;
42972;SDS011;28610;51.214;6.962;2023-03-14T12:37:26;10.37;;;5.00;;
42972;SDS011;28610;51.214;6.962;2023-03-14T12:40:15;9.33;;;5.00;;
42972;SDS011;28610;51.214;6.962;2023-03-14T12:43:04;9.83;;;4.30;;
42972;SDS011;28610;51.214;6.962;2023-03-14T12:49:10;11.73;;;4.93;;
42972;SDS011;28610;51.214;6.962;2023-03-14T12:51:58;14.00;;;4.47;;
42972;SDS011;28610;51.214;6.962;2023-03-14T12:54:44;9.87;;;5.60;;
42972;SDS011;28610;51.214;6.962;2023-03-14T12:57:33;6.50;;;4.30;;
42972;SDS011;28610;51.214;6.962;2023-03-14T13:00:29;10.97;;;4.10;;
42972;SDS011;28610;51.214;6.962;2023-03-14T13:03:17;7.97;;;3.67;;
42972;SDS011;28610;51.214;6.962;2023-03-14T13:06:05;9.53;;;4.13;;
42972;SDS011;28610;51.214;6.962;2023-03-14T13:08:51;11.90;;;5.00;;
42972;SDS011;28610;51.214;6.962;2023-03-14T13:11:40;12.97;;;5.57;;
42972;SDS011;28610;51.214;6.962;2023-03-14T13:14:27;12.40;;;5.47;;
42972;SDS011;28610;51.214;6.962;2023-03-14T13:17:14;7.73;;;4.27;;
42972;SDS011;28610;51.214;6.962;2023-03-14T13:20:02;10.33;;;3.97;;
42972;SDS011;28610;51.214;6.962;2023-03-14T13:22:49;10.20;;;3.87;;
42972;SDS011;28610;51.214;6.962;2023-03-14T13:25:35;11.20;;;4.97;;
42972;SDS011;28610;51.214;6.962;2023-03-14T13:28:21;10.07;;;3.90;;
42972;SDS011;28610;51.214;6.962;2023-03-14T13:31:14;15.83;;;3.80;;
42972;SDS011;28610;51.214;6.962;2023-03-14T13:34:09;13.83;;;3.90;;
42972;SDS011;28610;51.214;6.962;2023-03-14T13:36:55;12.17;;;3.80;;
42972;SDS011;28610;51.214;6.962;2023-03-14T13:39:41;15.40;;;4.30;;
42972;SDS011;28610;51.214;6.962;2023-03-14T13:42:28;15.87;;;4.17;;
42972;SDS011;28610;51.214;6.962;2023-03-14T13:45:14;15.30;;;4.70;;
42972;SDS011;28610;51.214;6.962;2023-03-14T13:47:59;18.83;;;4.43;;
42972;SDS011;28610;51.214;6.962;2023-03-14T13:50:50;21.60;;;4.80;;
42972;SDS011;28610;51.214;6.962;2023-03-14T13:53:42;17.37;;;4.43;;
42972;SDS011;28610;51.214;6.962;2023-03-14T13:56:28;16.03;;;4.57;;
42972;SDS011;28610;51.214;6.962;2023-03-14T13:59:21;17.77;;;4.50;;
42972;SDS011;28610;51.214;6.962;2023-03-14T14:02:09;20.30;;;4.50;;
42972;SDS011;28610;51.214;6.962;2023-03-14T14:04:58;18.67;;;4.40;;
42972;SDS011;28610;51.214;6.962;2023-03-14T14:07:45;19.70;;;4.63;;
42972;SDS011;28610;51.214;6.962;2023-03-14T14:10:36;20.17;;;4.80;;
42972;SDS011;28610;51.214;6.962;2023-03-14T14:13:22;22.40;;;5.03;;
42972;SDS011;28610;51.214;6.962;2023-03-14T14:16:09;22.00;;;5.07;;
42972;SDS011;28610;51.214;6.962;2023-03-14T14:18:55;24.60;;;5.37;;
42972;SDS011;28610;51.214;6.962;2023-03-14T14:21:41;19.63;;;5.90;;
42972;SDS011;28610;51.214;6.962;2023-03-14T14:24:29;23.60;;;5.73;;
42972;SDS011;28610;51.214;6.962;2023-03-14T14:27:16;27.20;;;6.67;;
42972;SDS011;28610;51.214;6.962;2023-03-14T14:30:06;24.00;;;6.70;;
42972;SDS011;28610;51.214;6.962;2023-03-14T14:32:52;26.90;;;5.30;;
42972;SDS011;28610;51.214;6.962;2023-03-14T14:35:37;28.17;;;5.50;;
42972;SDS011;28610;51.214;6.962;2023-03-14T14:38:23;33.60;;;6.47;;
42972;SDS011;28610;51.214;6.962;2023-03-14T14:41:11;25.00;;;5.33;;
42972;SDS011;28610;51.214;6.962;2023-03-14T14:43:57;24.33;;;5.00;;
42972;SDS011;28610;51.214;6.962;2023-03-14T14:46:43;23.07;;;4.87;;
42972;SDS011;28610;51.214;6.962;2023-03-14T14:49:30;22.07;;;5.30;;
42972;SDS011;28610;51.214;6.962;2023-03-14T14:52:17;24.40;;;4.90;;
42972;SDS011;28610;51.214;6.962;2023-03-14T14:55:11;20.33;;;5.20;;
42972;SDS011;28610;51.214;6.962;2023-03-14T14:58:09;18.33;;;4.97;;
42972;SDS011;28610;51.214;6.962;2023-03-14T15:00:57;19.53;;;4.00;;
42972;SDS011;28610;51.214;6.962;2023-03-14T15:03:44;19.10;;;4.87;;
42972;SDS011;28610;51.214;6.962;2023-03-14T15:06:30;21.70;;;4.67;;
42972;SDS011;28610;51.214;6.962;2023-03-14T15:09:16;13.87;;;3.83;;
42972;SDS011;28610;51.214;6.962;2023-03-14T15:12:02;15.77;;;3.63;;
42972;SDS011;28610;51.214;6.962;2023-03-14T15:14:49;15.97;;;4.20;;
42972;SDS011;28610;51.214;6.962;2023-03-14T15:17:35;14.47;;;4.13;;
42972;SDS011;28610;51.214;6.962;2023-03-14T15:20:21;15.50;;;4.43;;
42972;SDS011;28610;51.214;6.962;2023-03-14T15:23:10;12.60;;;3.73;;
42972;SDS011;28610;51.214;6.962;2023-03-14T15:25:56;18.90;;;3.97;;
42972;SDS011;28610;51.214;6.962;2023-03-14T15:28:42;11.93;;;3.80;;
42972;SDS011;28610;51.214;6.962;2023-03-14T15:31:30;13.17;;;3.70;;
42972;SDS011;28610;51.214;6.962;2023-03-14T15:34:16;14.37;;;3.90;;
42972;SDS011;28610;51.214;6.962;2023-03-14T15:37:01;15.43;;;3.87;;
42972;SDS011;28610;51.214;6.962;2023-03-14T15:39:50;13.80;;;3.93;;
42972;SDS011;28610;51.214;6.962;2023-03-14T15:42:35;15.37;;;4.10;;
42972;SDS011;28610;51.214;6.962;2023-03-14T15:45:21;12.43;;;3.63;;
42972;SDS011;28610;51.214;6.962;2023-03-14T15:48:17;14.60;;;3.90;;
42972;SDS011;28610;51.214;6.962;2023-03-14T15:51:03;13.83;;;3.93;;
42972;SDS011;28610;51.214;6.962;2023-03-14T15:53:50;16.10;;;3.73;;
42972;SDS011;28610;51.214;6.962;2023-03-14T15:56:36;10.90;;;3.63;;
42972;SDS011;28610;51.214;6.962;2023-03-14T15:59:22;13.07;;;3.90;;
42972;SDS011;28610;51.214;6.962;2023-03-14T16:02:08;17.10;;;4.03;;
42972;SDS011;28610;51.214;6.962;2023-03-14T16:04:55;11.03;;;3.80;;
42972;SDS011;28610;51.214;6.962;2023-03-14T16:07:41;12.00;;;3.70;;
42972;SDS011;28610;51.214;6.962;2023-03-14T16:10:27;15.17;;;3.83;;
42972;SDS011;28610;51.214;6.962;2023-03-14T16:13:12;11.77;;;3.80;;
42972;SDS011;28610;51.214;6.962;2023-03-14T16:15:58;11.07;;;3.67;;
42972;SDS011;28610;51.214;6.962;2023-03-14T16:18:44;15.13;;;3.97;;
42972;SDS011;28610;51.214;6.962;2023-03-14T16:21:31;14.93;;;4.00;;
42972;SDS011;28610;51.214;6.962;2023-03-14T16:24:21;12.80;;;3.40;;
42972;SDS011;28610;51.214;6.962;2023-03-14T16:27:06;11.97;;;3.37;;
42972;SDS011;28610;51.214;6.962;2023-03-14T16:29:52;16.10;;;3.70;;
42972;SDS011;28610;51.214;6.962;2023-03-14T16:32:37;10.47;;;3.47;;
42972;SDS011;28610;51.214;6.962;2023-03-14T16:35:23;12.17;;;3.43;;
42972;SDS011;28610;51.214;6.962;2023-03-14T16:38:10;8.63;;;3.43;;
42972;SDS011;28610;51.214;6.962;2023-03-14T16:40:57;11.53;;;3.70;;
42972;SDS011;28610;51.214;6.962;2023-03-14T16:43:43;7.57;;;3.40;;
42972;SDS011;28610;51.214;6.962;2023-03-14T16:46:29;10.43;;;3.90;;
42972;SDS011;28610;51.214;6.962;2023-03-14T16:49:14;12.10;;;3.50;;
42972;SDS011;28610;51.214;6.962;2023-03-14T16:52:00;13.73;;;3.70;;
42972;SDS011;28610;51.214;6.962;2023-03-14T16:54:47;14.70;;;3.90;;
42972;SDS011;28610;51.214;6.962;2023-03-14T16:57:33;16.27;;;3.90;;
42972;SDS011;28610;51.214;6.962;2023-03-14T17:00:19;11.47;;;3.70;;